sensor_id;sensor_type;location;lat;lon;timestamp;P1;durP1;ratioP1;P2;durP2;ratioP2
62796;SDS011;48839;48.546;-4.178;2022-12-29T00:02:05;11.52;;;1.85;;
62796;SDS011;48839;48.546;-4.178;2022-12-29T00:04:31;17.58;;;3.47;;
62796;SDS011;48839;48.546;-4.178;2022-12-29T00:06:57;11.98;;;2.33;;
62796;SDS011;48839;48.546;-4.178;2022-12-29T00:09:23;7.45;;;1.73;;
62796;SDS011;48839;48.546;-4.178;2022-12-29T00:11:49;22.83;;;3.97;;
62796;SDS011;48839;48.546;-4.178;2022-12-29T00:14:15;9.75;;;2.47;;
62796;SDS011;48839;48.546;-4.178;2022-12-29T00:17:00;17.08;;;2.85;;
62796;SDS011;48839;48.546;-4.178;2022-12-29T00:19:26;10.73;;;3.17;;
62796;SDS011;48839;48.546;-4.178;2022-12-29T00:22:11;10.13;;;3.08;;
62796;SDS011;48839;48.546;-4.178;2022-12-29T00:24:56;13.95;;;3.00;;
62796;SDS011;48839;48.546;-4.178;2022-12-29T00:27:41;8.23;;;2.95;;
62796;SDS011;48839;48.546;-4.178;2022-12-29T00:30:26;17.90;;;3.60;;
62796;SDS011;48839;48.546;-4.178;2022-12-29T00:33:15;14.63;;;2.45;;
62796;SDS011;48839;48.546;-4.178;2022-12-29T00:36:01;16.90;;;3.50;;
62796;SDS011;48839;48.546;-4.178;2022-12-29T00:38:28;8.75;;;2.55;;
62796;SDS011;48839;48.546;-4.178;2022-12-29T00:41:13;20.48;;;3.78;;
62796;SDS011;48839;48.546;-4.178;2022-12-29T00:43:58;9.52;;;2.97;;
62796;SDS011;48839;48.546;-4.178;2022-12-29T00:46:30;19.10;;;3.30;;
62796;SDS011;48839;48.546;-4.178;2022-12-29T00:48:56;16.27;;;3.50;;
62796;SDS011;48839;48.546;-4.178;2022-12-29T00:51:41;17.45;;;4.38;;
62796;SDS011;48839;48.546;-4.178;2022-12-29T00:54:07;19.70;;;4.38;;
62796;SDS011;48839;48.546;-4.178;2022-12-29T00:56:33;24.42;;;5.43;;
62796;SDS011;48839;48.546;-4.178;2022-12-29T00:59:00;22.58;;;4.72;;
62796;SDS011;48839;48.546;-4.178;2022-12-29T01:01:26;21.65;;;4.63;;
62796;SDS011;48839;48.546;-4.178;2022-12-29T01:03:52;14.27;;;3.85;;
62796;SDS011;48839;48.546;-4.178;2022-12-29T01:06:18;15.57;;;3.67;;
62796;SDS011;48839;48.546;-4.178;2022-12-29T01:08:44;23.60;;;4.93;;
62796;SDS011;48839;48.546;-4.178;2022-12-29T01:11:11;20.05;;;4.63;;
62796;SDS011;48839;48.546;-4.178;2022-12-29T01:13:37;17.48;;;4.50;;
62796;SDS011;48839;48.546;-4.178;2022-12-29T01:16:03;22.80;;;5.20;;
62796;SDS011;48839;48.546;-4.178;2022-12-29T01:18:30;14.02;;;4.80;;
62796;SDS011;48839;48.546;-4.178;2022-12-29T01:20:59;15.23;;;4.60;;
62796;SDS011;48839;48.546;-4.178;2022-12-29T01:23:26;35.03;;;6.32;;
62796;SDS011;48839;48.546;-4.178;2022-12-29T01:25:52;19.48;;;6.50;;
62796;SDS011;48839;48.546;-4.178;2022-12-29T01:28:18;38.58;;;6.97;;
62796;SDS011;48839;48.546;-4.178;2022-12-29T01:30:44;20.40;;;5.80;;
62796;SDS011;48839;48.546;-4.178;2022-12-29T01:33:10;19.60;;;4.43;;
62796;SDS011;48839;48.546;-4.178;2022-12-29T01:35:36;21.77;;;6.15;;
62796;SDS011;48839;48.546;-4.178;2022-12-29T01:38:02;20.67;;;5.82;;
62796;SDS011;48839;48.546;-4.178;2022-12-29T01:40:28;19.08;;;6.18;;
62796;SDS011;48839;48.546;-4.178;2022-12-29T01:42:54;26.90;;;6.53;;
62796;SDS011;48839;48.546;-4.178;2022-12-29T01:45:20;19.35;;;4.88;;
62796;SDS011;48839;48.546;-4.178;2022-12-29T01:50:17;9.77;;;2.90;;
62796;SDS011;48839;48.546;-4.178;2022-12-29T01:52:50;9.73;;;3.20;;
62796;SDS011;48839;48.546;-4.178;2022-12-29T01:55:16;13.30;;;3.42;;
62796;SDS011;48839;48.546;-4.178;2022-12-29T01:57:44;9.85;;;3.75;;
62796;SDS011;48839;48.546;-4.178;2022-12-29T02:00:12;12.38;;;3.00;;
62796;SDS011;48839;48.546;-4.178;2022-12-29T02:02:39;9.75;;;3.30;;
62796;SDS011;48839;48.546;-4.178;2022-12-29T02:05:10;9.05;;;3.60;;
62796;SDS011;48839;48.546;-4.178;2022-12-29T02:07:37;20.73;;;3.80;;
62796;SDS011;48839;48.546;-4.178;2022-12-29T02:10:03;11.88;;;3.88;;
62796;SDS011;48839;48.546;-4.178;2022-12-29T02:12:29;13.48;;;3.33;;
62796;SDS011;48839;48.546;-4.178;2022-12-29T02:14:57;14.23;;;3.80;;
62796;SDS011;48839;48.546;-4.178;2022-12-29T02:33:21;16.00;;;3.63;;
62796;SDS011;48839;48.546;-4.178;2022-12-29T02:36:06;11.40;;;3.28;;
62796;SDS011;48839;48.546;-4.178;2022-12-29T02:38:41;18.45;;;5.03;;
62796;SDS011;48839;48.546;-4.178;2022-12-29T02:43:39;21.05;;;5.50;;
62796;SDS011;48839;48.546;-4.178;2022-12-29T02:46:33;15.45;;;4.78;;
62796;SDS011;48839;48.546;-4.178;2022-12-29T02:51:31;12.10;;;3.70;;
62796;SDS011;48839;48.546;-4.178;2022-12-29T02:53:57;19.55;;;5.03;;
62796;SDS011;48839;48.546;-4.178;2022-12-29T02:56:42;22.77;;;8.27;;
62796;SDS011;48839;48.546;-4.178;2022-12-29T02:59:09;26.90;;;7.57;;
62796;SDS011;48839;48.546;-4.178;2022-12-29T03:06:56;34.22;;;13.23;;
62796;SDS011;48839;48.546;-4.178;2022-12-29T03:11:57;43.58;;;12.73;;
62796;SDS011;48839;48.546;-4.178;2022-12-29T03:14:35;8.05;;;4.30;;
62796;SDS011;48839;48.546;-4.178;2022-12-29T03:19:48;19.25;;;6.00;;
62796;SDS011;48839;48.546;-4.178;2022-12-29T03:22:23;19.58;;;7.70;;
62796;SDS011;48839;48.546;-4.178;2022-12-29T03:25:00;15.73;;;4.47;;
62796;SDS011;48839;48.546;-4.178;2022-12-29T03:27:31;13.85;;;3.53;;
62796;SDS011;48839;48.546;-4.178;2022-12-29T03:30:00;12.05;;;4.63;;
62796;SDS011;48839;48.546;-4.178;2022-12-29T03:32:46;12.38;;;3.47;;
62796;SDS011;48839;48.546;-4.178;2022-12-29T03:35:13;15.88;;;3.10;;
62796;SDS011;48839;48.546;-4.178;2022-12-29T03:37:42;10.23;;;3.33;;
62796;SDS011;48839;48.546;-4.178;2022-12-29T03:40:09;18.85;;;5.00;;
62796;SDS011;48839;48.546;-4.178;2022-12-29T03:42:35;19.13;;;5.50;;
62796;SDS011;48839;48.546;-4.178;2022-12-29T03:45:02;12.95;;;3.00;;
62796;SDS011;48839;48.546;-4.178;2022-12-29T03:47:29;12.23;;;4.20;;
62796;SDS011;48839;48.546;-4.178;2022-12-29T03:49:56;18.48;;;3.90;;
62796;SDS011;48839;48.546;-4.178;2022-12-29T03:52:22;21.48;;;5.28;;
62796;SDS011;48839;48.546;-4.178;2022-12-29T03:54:48;19.27;;;4.60;;
62796;SDS011;48839;48.546;-4.178;2022-12-29T03:57:14;13.85;;;3.13;;
62796;SDS011;48839;48.546;-4.178;2022-12-29T03:59:40;15.68;;;3.40;;
62796;SDS011;48839;48.546;-4.178;2022-12-29T04:02:06;25.85;;;3.55;;
62796;SDS011;48839;48.546;-4.178;2022-12-29T04:04:32;11.35;;;2.95;;
62796;SDS011;48839;48.546;-4.178;2022-12-29T04:06:58;14.65;;;3.60;;
62796;SDS011;48839;48.546;-4.178;2022-12-29T04:09:24;11.57;;;3.30;;
62796;SDS011;48839;48.546;-4.178;2022-12-29T04:11:50;13.95;;;2.90;;
62796;SDS011;48839;48.546;-4.178;2022-12-29T04:14:16;15.13;;;2.83;;
62796;SDS011;48839;48.546;-4.178;2022-12-29T04:16:42;8.05;;;2.75;;
62796;SDS011;48839;48.546;-4.178;2022-12-29T04:19:08;8.52;;;2.60;;
62796;SDS011;48839;48.546;-4.178;2022-12-29T04:21:34;18.00;;;3.58;;
62796;SDS011;48839;48.546;-4.178;2022-12-29T04:24:00;10.15;;;2.70;;
62796;SDS011;48839;48.546;-4.178;2022-12-29T04:26:26;9.27;;;3.58;;
62796;SDS011;48839;48.546;-4.178;2022-12-29T04:28:52;14.93;;;3.60;;
62796;SDS011;48839;48.546;-4.178;2022-12-29T04:31:18;21.13;;;3.97;;
62796;SDS011;48839;48.546;-4.178;2022-12-29T04:33:44;16.50;;;4.75;;
62796;SDS011;48839;48.546;-4.178;2022-12-29T04:36:10;14.60;;;4.07;;
62796;SDS011;48839;48.546;-4.178;2022-12-29T04:38:36;13.68;;;3.40;;
62796;SDS011;48839;48.546;-4.178;2022-12-29T04:41:02;11.35;;;3.03;;
62796;SDS011;48839;48.546;-4.178;2022-12-29T04:43:28;14.63;;;3.25;;
62796;SDS011;48839;48.546;-4.178;2022-12-29T04:45:54;14.38;;;3.10;;
62796;SDS011;48839;48.546;-4.178;2022-12-29T04:48:20;12.15;;;2.65;;
62796;SDS011;48839;48.546;-4.178;2022-12-29T04:50:49;12.52;;;3.63;;
62796;SDS011;48839;48.546;-4.178;2022-12-29T04:53:16;15.48;;;3.45;;
62796;SDS011;48839;48.546;-4.178;2022-12-29T04:55:42;16.70;;;3.45;;
62796;SDS011;48839;48.546;-4.178;2022-12-29T04:58:08;15.20;;;3.03;;
62796;SDS011;48839;48.546;-4.178;2022-12-29T05:00:34;17.17;;;3.00;;
62796;SDS011;48839;48.546;-4.178;2022-12-29T05:03:00;14.20;;;3.40;;
62796;SDS011;48839;48.546;-4.178;2022-12-29T05:05:26;12.98;;;7.32;;
62796;SDS011;48839;48.546;-4.178;2022-12-29T05:07:52;17.63;;;7.70;;
62796;SDS011;48839;48.546;-4.178;2022-12-29T05:10:18;22.15;;;4.57;;
62796;SDS011;48839;48.546;-4.178;2022-12-29T05:12:44;13.45;;;3.42;;
62796;SDS011;48839;48.546;-4.178;2022-12-29T05:15:10;19.92;;;3.35;;
62796;SDS011;48839;48.546;-4.178;2022-12-29T05:17:37;13.52;;;3.75;;
62796;SDS011;48839;48.546;-4.178;2022-12-29T05:20:03;11.38;;;2.58;;
62796;SDS011;48839;48.546;-4.178;2022-12-29T05:22:30;13.68;;;3.22;;
62796;SDS011;48839;48.546;-4.178;2022-12-29T05:24:56;12.93;;;3.25;;
62796;SDS011;48839;48.546;-4.178;2022-12-29T05:27:22;13.40;;;3.17;;
62796;SDS011;48839;48.546;-4.178;2022-12-29T05:29:48;18.50;;;4.57;;
62796;SDS011;48839;48.546;-4.178;2022-12-29T05:32:14;19.23;;;4.75;;
62796;SDS011;48839;48.546;-4.178;2022-12-29T05:34:40;9.82;;;3.90;;
62796;SDS011;48839;48.546;-4.178;2022-12-29T05:37:06;17.88;;;3.92;;
62796;SDS011;48839;48.546;-4.178;2022-12-29T05:39:32;11.52;;;2.65;;
62796;SDS011;48839;48.546;-4.178;2022-12-29T05:41:58;12.90;;;4.50;;
62796;SDS011;48839;48.546;-4.178;2022-12-29T05:44:24;10.95;;;3.58;;
62796;SDS011;48839;48.546;-4.178;2022-12-29T05:46:50;7.72;;;3.15;;
62796;SDS011;48839;48.546;-4.178;2022-12-29T05:49:16;25.33;;;3.38;;
62796;SDS011;48839;48.546;-4.178;2022-12-29T05:51:42;14.05;;;3.80;;
62796;SDS011;48839;48.546;-4.178;2022-12-29T05:54:08;11.70;;;3.70;;
62796;SDS011;48839;48.546;-4.178;2022-12-29T05:56:34;14.23;;;3.15;;
62796;SDS011;48839;48.546;-4.178;2022-12-29T05:59:00;17.60;;;3.60;;
62796;SDS011;48839;48.546;-4.178;2022-12-29T06:01:26;18.13;;;3.20;;
62796;SDS011;48839;48.546;-4.178;2022-12-29T06:03:52;16.35;;;3.08;;
62796;SDS011;48839;48.546;-4.178;2022-12-29T06:06:19;17.42;;;3.10;;
62796;SDS011;48839;48.546;-4.178;2022-12-29T06:08:45;24.25;;;3.72;;
62796;SDS011;48839;48.546;-4.178;2022-12-29T06:11:11;22.52;;;4.35;;
62796;SDS011;48839;48.546;-4.178;2022-12-29T06:13:37;19.88;;;3.05;;
62796;SDS011;48839;48.546;-4.178;2022-12-29T06:16:03;23.13;;;3.92;;
62796;SDS011;48839;48.546;-4.178;2022-12-29T06:18:29;18.65;;;3.60;;
62796;SDS011;48839;48.546;-4.178;2022-12-29T06:20:59;17.25;;;3.33;;
62796;SDS011;48839;48.546;-4.178;2022-12-29T06:23:25;23.42;;;3.63;;
62796;SDS011;48839;48.546;-4.178;2022-12-29T06:25:51;19.95;;;4.75;;
62796;SDS011;48839;48.546;-4.178;2022-12-29T06:28:18;26.40;;;3.80;;
62796;SDS011;48839;48.546;-4.178;2022-12-29T06:30:44;23.15;;;4.75;;
62796;SDS011;48839;48.546;-4.178;2022-12-29T06:33:11;14.65;;;3.28;;
62796;SDS011;48839;48.546;-4.178;2022-12-29T06:35:37;14.13;;;3.65;;
62796;SDS011;48839;48.546;-4.178;2022-12-29T06:38:03;18.73;;;3.90;;
62796;SDS011;48839;48.546;-4.178;2022-12-29T06:40:29;15.80;;;4.10;;
62796;SDS011;48839;48.546;-4.178;2022-12-29T06:42:55;18.98;;;3.78;;
62796;SDS011;48839;48.546;-4.178;2022-12-29T06:45:21;18.77;;;2.90;;
62796;SDS011;48839;48.546;-4.178;2022-12-29T06:47:47;17.63;;;3.33;;
62796;SDS011;48839;48.546;-4.178;2022-12-29T06:50:13;24.20;;;3.13;;
62796;SDS011;48839;48.546;-4.178;2022-12-29T06:52:39;16.98;;;2.75;;
62796;SDS011;48839;48.546;-4.178;2022-12-29T06:55:05;11.48;;;2.60;;
62796;SDS011;48839;48.546;-4.178;2022-12-29T06:57:31;14.63;;;3.00;;
62796;SDS011;48839;48.546;-4.178;2022-12-29T06:59:57;7.78;;;2.88;;
62796;SDS011;48839;48.546;-4.178;2022-12-29T07:02:23;9.60;;;1.77;;
62796;SDS011;48839;48.546;-4.178;2022-12-29T07:04:52;9.05;;;2.33;;
62796;SDS011;48839;48.546;-4.178;2022-12-29T07:07:19;4.88;;;2.10;;
62796;SDS011;48839;48.546;-4.178;2022-12-29T07:09:45;11.38;;;2.10;;
62796;SDS011;48839;48.546;-4.178;2022-12-29T07:12:11;11.13;;;2.15;;
62796;SDS011;48839;48.546;-4.178;2022-12-29T07:14:37;7.10;;;1.30;;
62796;SDS011;48839;48.546;-4.178;2022-12-29T07:17:04;10.13;;;1.85;;
62796;SDS011;48839;48.546;-4.178;2022-12-29T07:19:31;12.70;;;2.03;;
62796;SDS011;48839;48.546;-4.178;2022-12-29T07:21:57;11.27;;;2.35;;
62796;SDS011;48839;48.546;-4.178;2022-12-29T07:24:23;9.90;;;1.95;;
62796;SDS011;48839;48.546;-4.178;2022-12-29T07:26:50;14.43;;;2.67;;
62796;SDS011;48839;48.546;-4.178;2022-12-29T07:29:17;8.63;;;2.60;;
62796;SDS011;48839;48.546;-4.178;2022-12-29T07:31:43;16.85;;;3.55;;
62796;SDS011;48839;48.546;-4.178;2022-12-29T07:34:09;9.35;;;3.33;;
62796;SDS011;48839;48.546;-4.178;2022-12-29T07:36:35;19.38;;;6.90;;
62796;SDS011;48839;48.546;-4.178;2022-12-29T07:39:01;25.50;;;8.60;;
62796;SDS011;48839;48.546;-4.178;2022-12-29T07:41:27;32.22;;;12.77;;
62796;SDS011;48839;48.546;-4.178;2022-12-29T07:43:53;34.72;;;13.20;;
62796;SDS011;48839;48.546;-4.178;2022-12-29T07:46:19;25.67;;;10.43;;
62796;SDS011;48839;48.546;-4.178;2022-12-29T07:48:45;61.20;;;27.25;;
62796;SDS011;48839;48.546;-4.178;2022-12-29T07:51:11;27.42;;;9.82;;
62796;SDS011;48839;48.546;-4.178;2022-12-29T07:53:37;61.10;;;25.42;;
62796;SDS011;48839;48.546;-4.178;2022-12-29T07:56:03;63.92;;;28.80;;
62796;SDS011;48839;48.546;-4.178;2022-12-29T07:58:29;38.67;;;14.90;;
62796;SDS011;48839;48.546;-4.178;2022-12-29T08:00:55;50.00;;;24.42;;
62796;SDS011;48839;48.546;-4.178;2022-12-29T08:03:22;19.20;;;8.60;;
62796;SDS011;48839;48.546;-4.178;2022-12-29T08:05:48;18.65;;;11.27;;
62796;SDS011;48839;48.546;-4.178;2022-12-29T08:08:14;8.15;;;3.42;;
62796;SDS011;48839;48.546;-4.178;2022-12-29T08:10:40;9.20;;;2.70;;
62796;SDS011;48839;48.546;-4.178;2022-12-29T08:13:06;10.40;;;4.75;;
62796;SDS011;48839;48.546;-4.178;2022-12-29T08:15:32;16.75;;;5.95;;
62796;SDS011;48839;48.546;-4.178;2022-12-29T08:17:58;15.15;;;5.22;;
62796;SDS011;48839;48.546;-4.178;2022-12-29T08:20:24;21.23;;;6.38;;
62796;SDS011;48839;48.546;-4.178;2022-12-29T08:22:50;15.75;;;5.25;;
62796;SDS011;48839;48.546;-4.178;2022-12-29T08:25:16;19.02;;;5.35;;
62796;SDS011;48839;48.546;-4.178;2022-12-29T08:27:44;16.85;;;5.80;;
62796;SDS011;48839;48.546;-4.178;2022-12-29T08:30:10;17.75;;;7.00;;
62796;SDS011;48839;48.546;-4.178;2022-12-29T08:32:36;19.05;;;6.55;;
62796;SDS011;48839;48.546;-4.178;2022-12-29T08:35:02;9.50;;;4.22;;
62796;SDS011;48839;48.546;-4.178;2022-12-29T08:37:28;13.52;;;4.90;;
62796;SDS011;48839;48.546;-4.178;2022-12-29T08:39:54;6.88;;;3.03;;
62796;SDS011;48839;48.546;-4.178;2022-12-29T08:42:20;15.82;;;2.53;;
62796;SDS011;48839;48.546;-4.178;2022-12-29T08:44:46;4.35;;;2.20;;
62796;SDS011;48839;48.546;-4.178;2022-12-29T08:47:12;14.18;;;2.33;;
62796;SDS011;48839;48.546;-4.178;2022-12-29T08:49:38;11.38;;;2.42;;
62796;SDS011;48839;48.546;-4.178;2022-12-29T08:52:04;23.77;;;2.97;;
62796;SDS011;48839;48.546;-4.178;2022-12-29T08:54:31;8.52;;;2.22;;
62796;SDS011;48839;48.546;-4.178;2022-12-29T08:56:57;14.32;;;2.83;;
62796;SDS011;48839;48.546;-4.178;2022-12-29T08:59:23;12.02;;;2.33;;
62796;SDS011;48839;48.546;-4.178;2022-12-29T09:01:49;18.33;;;2.88;;
62796;SDS011;48839;48.546;-4.178;2022-12-29T09:04:15;9.75;;;1.90;;
62796;SDS011;48839;48.546;-4.178;2022-12-29T09:06:41;14.00;;;2.53;;
62796;SDS011;48839;48.546;-4.178;2022-12-29T09:09:07;17.17;;;3.53;;
62796;SDS011;48839;48.546;-4.178;2022-12-29T09:11:33;22.20;;;10.82;;
62796;SDS011;48839;48.546;-4.178;2022-12-29T09:13:59;25.77;;;11.32;;
62796;SDS011;48839;48.546;-4.178;2022-12-29T09:16:25;29.42;;;10.77;;
62796;SDS011;48839;48.546;-4.178;2022-12-29T09:18:52;26.73;;;8.80;;
62796;SDS011;48839;48.546;-4.178;2022-12-29T09:21:18;22.60;;;9.35;;
62796;SDS011;48839;48.546;-4.178;2022-12-29T09:23:44;25.88;;;10.43;;
62796;SDS011;48839;48.546;-4.178;2022-12-29T09:26:10;23.17;;;11.75;;
62796;SDS011;48839;48.546;-4.178;2022-12-29T09:28:36;14.05;;;7.20;;
62796;SDS011;48839;48.546;-4.178;2022-12-29T09:31:02;21.15;;;10.05;;
62796;SDS011;48839;48.546;-4.178;2022-12-29T09:33:28;22.35;;;9.27;;
62796;SDS011;48839;48.546;-4.178;2022-12-29T09:35:55;16.13;;;6.20;;
62796;SDS011;48839;48.546;-4.178;2022-12-29T09:38:22;11.50;;;6.03;;
62796;SDS011;48839;48.546;-4.178;2022-12-29T09:40:53;20.75;;;6.70;;
62796;SDS011;48839;48.546;-4.178;2022-12-29T09:45:53;20.65;;;8.88;;
62796;SDS011;48839;48.546;-4.178;2022-12-29T09:48:23;32.22;;;13.32;;
62796;SDS011;48839;48.546;-4.178;2022-12-29T09:50:52;18.58;;;8.88;;
62796;SDS011;48839;48.546;-4.178;2022-12-29T09:53:42;14.77;;;6.32;;
62796;SDS011;48839;48.546;-4.178;2022-12-29T09:56:11;53.70;;;24.88;;
62796;SDS011;48839;48.546;-4.178;2022-12-29T09:58:40;27.30;;;11.55;;
62796;SDS011;48839;48.546;-4.178;2022-12-29T10:01:18;36.00;;;18.20;;
62796;SDS011;48839;48.546;-4.178;2022-12-29T10:03:48;38.00;;;18.05;;
62796;SDS011;48839;48.546;-4.178;2022-12-29T10:06:21;23.70;;;10.00;;
62796;SDS011;48839;48.546;-4.178;2022-12-29T10:09:00;42.00;;;20.42;;
62796;SDS011;48839;48.546;-4.178;2022-12-29T10:11:40;27.73;;;12.07;;
62796;SDS011;48839;48.546;-4.178;2022-12-29T10:14:29;23.83;;;11.02;;
62796;SDS011;48839;48.546;-4.178;2022-12-29T10:25:19;25.65;;;12.27;;
62796;SDS011;48839;48.546;-4.178;2022-12-29T10:27:47;9.43;;;3.08;;
62796;SDS011;48839;48.546;-4.178;2022-12-29T10:30:13;8.43;;;2.38;;
62796;SDS011;48839;48.546;-4.178;2022-12-29T10:32:52;9.10;;;2.50;;
62796;SDS011;48839;48.546;-4.178;2022-12-29T10:35:21;5.50;;;1.95;;
62796;SDS011;48839;48.546;-4.178;2022-12-29T10:38:01;8.35;;;1.58;;
62796;SDS011;48839;48.546;-4.178;2022-12-29T10:40:33;5.72;;;1.95;;
62796;SDS011;48839;48.546;-4.178;2022-12-29T10:45:29;6.22;;;2.03;;
62796;SDS011;48839;48.546;-4.178;2022-12-29T10:47:58;8.35;;;1.73;;
62796;SDS011;48839;48.546;-4.178;2022-12-29T10:50:25;5.93;;;1.92;;
62796;SDS011;48839;48.546;-4.178;2022-12-29T10:52:54;6.82;;;2.58;;
62796;SDS011;48839;48.546;-4.178;2022-12-29T10:55:22;8.68;;;2.35;;
62796;SDS011;48839;48.546;-4.178;2022-12-29T10:57:50;5.93;;;2.33;;
62796;SDS011;48839;48.546;-4.178;2022-12-29T11:00:17;6.53;;;5.90;;
62796;SDS011;48839;48.546;-4.178;2022-12-29T11:07:50;10.63;;;9.30;;
62796;SDS011;48839;48.546;-4.178;2022-12-29T11:13:32;10.25;;;5.88;;
62796;SDS011;48839;48.546;-4.178;2022-12-29T11:15:51;13.32;;;6.10;;
62796;SDS011;48839;48.546;-4.178;2022-12-29T11:20:43;12.45;;;2.42;;
62796;SDS011;48839;48.546;-4.178;2022-12-29T11:23:55;6.25;;;2.38;;
62796;SDS011;48839;48.546;-4.178;2022-12-29T11:28:30;10.63;;;2.28;;
62796;SDS011;48839;48.546;-4.178;2022-12-29T11:31:01;7.47;;;1.92;;
62796;SDS011;48839;48.546;-4.178;2022-12-29T11:33:28;7.10;;;1.50;;
62796;SDS011;48839;48.546;-4.178;2022-12-29T11:36:08;3.97;;;1.20;;
62796;SDS011;48839;48.546;-4.178;2022-12-29T11:38:39;5.72;;;1.42;;
62796;SDS011;48839;48.546;-4.178;2022-12-29T11:41:06;3.85;;;1.30;;
62796;SDS011;48839;48.546;-4.178;2022-12-29T11:43:39;3.22;;;1.40;;
62796;SDS011;48839;48.546;-4.178;2022-12-29T11:46:07;7.32;;;1.85;;
62796;SDS011;48839;48.546;-4.178;2022-12-29T11:48:39;5.90;;;2.08;;
62796;SDS011;48839;48.546;-4.178;2022-12-29T11:51:05;5.20;;;1.83;;
62796;SDS011;48839;48.546;-4.178;2022-12-29T11:53:34;5.25;;;2.45;;
62796;SDS011;48839;48.546;-4.178;2022-12-29T11:56:04;8.95;;;1.77;;
62796;SDS011;48839;48.546;-4.178;2022-12-29T11:58:35;13.48;;;2.08;;
62796;SDS011;48839;48.546;-4.178;2022-12-29T12:01:47;10.00;;;2.33;;
62796;SDS011;48839;48.546;-4.178;2022-12-29T12:06:30;11.48;;;3.08;;
62796;SDS011;48839;48.546;-4.178;2022-12-29T12:09:00;8.23;;;1.50;;
62796;SDS011;48839;48.546;-4.178;2022-12-29T12:11:30;5.72;;;1.88;;
62796;SDS011;48839;48.546;-4.178;2022-12-29T12:14:07;22.30;;;9.70;;
62796;SDS011;48839;48.546;-4.178;2022-12-29T12:16:39;9.18;;;1.52;;
62796;SDS011;48839;48.546;-4.178;2022-12-29T12:19:20;6.45;;;1.70;;
62796;SDS011;48839;48.546;-4.178;2022-12-29T12:21:51;6.53;;;1.98;;
62796;SDS011;48839;48.546;-4.178;2022-12-29T12:27:01;4.95;;;1.23;;
62796;SDS011;48839;48.546;-4.178;2022-12-29T12:29:38;4.63;;;1.20;;
62796;SDS011;48839;48.546;-4.178;2022-12-29T12:32:17;4.28;;;1.65;;
62796;SDS011;48839;48.546;-4.178;2022-12-29T12:34:46;6.72;;;1.00;;
62796;SDS011;48839;48.546;-4.178;2022-12-29T12:44:53;5.47;;;1.30;;
62796;SDS011;48839;48.546;-4.178;2022-12-29T13:16:05;6.00;;;1.88;;
62796;SDS011;48839;48.546;-4.178;2022-12-29T13:21:25;6.72;;;1.30;;
62796;SDS011;48839;48.546;-4.178;2022-12-29T13:24:00;1.55;;;1.20;;
62796;SDS011;48839;48.546;-4.178;2022-12-29T13:28:57;7.03;;;1.60;;
62796;SDS011;48839;48.546;-4.178;2022-12-29T13:36:25;7.07;;;3.50;;
62796;SDS011;48839;48.546;-4.178;2022-12-29T13:39:01;11.60;;;6.63;;
62796;SDS011;48839;48.546;-4.178;2022-12-29T13:42:10;5.38;;;3.20;;
62796;SDS011;48839;48.546;-4.178;2022-12-29T13:44:27;4.85;;;3.75;;
62796;SDS011;48839;48.546;-4.178;2022-12-29T13:46:54;6.00;;;3.30;;
62796;SDS011;48839;48.546;-4.178;2022-12-29T13:49:22;6.53;;;4.95;;
62796;SDS011;48839;48.546;-4.178;2022-12-29T13:51:55;9.38;;;2.95;;
62796;SDS011;48839;48.546;-4.178;2022-12-29T13:54:25;9.57;;;6.30;;
62796;SDS011;48839;48.546;-4.178;2022-12-29T13:56:57;7.95;;;1.85;;
62796;SDS011;48839;48.546;-4.178;2022-12-29T14:04:21;7.35;;;2.28;;
62796;SDS011;48839;48.546;-4.178;2022-12-29T14:06:58;7.93;;;1.70;;
62796;SDS011;48839;48.546;-4.178;2022-12-29T14:11:59;5.22;;;1.52;;
62796;SDS011;48839;48.546;-4.178;2022-12-29T14:14:27;3.63;;;1.27;;
62796;SDS011;48839;48.546;-4.178;2022-12-29T14:16:54;7.18;;;1.40;;
62796;SDS011;48839;48.546;-4.178;2022-12-29T14:21:50;6.28;;;1.58;;
62796;SDS011;48839;48.546;-4.178;2022-12-29T14:26:52;8.93;;;1.23;;
62796;SDS011;48839;48.546;-4.178;2022-12-29T14:31:47;10.90;;;2.22;;
62796;SDS011;48839;48.546;-4.178;2022-12-29T14:36:43;4.53;;;1.70;;
62796;SDS011;48839;48.546;-4.178;2022-12-29T14:44:58;8.90;;;1.55;;
62796;SDS011;48839;48.546;-4.178;2022-12-29T14:50:06;4.40;;;1.58;;
62796;SDS011;48839;48.546;-4.178;2022-12-29T14:52:34;3.90;;;1.83;;
62796;SDS011;48839;48.546;-4.178;2022-12-29T14:57:44;8.25;;;1.98;;
62796;SDS011;48839;48.546;-4.178;2022-12-29T15:00:22;8.95;;;1.83;;
62796;SDS011;48839;48.546;-4.178;2022-12-29T15:02:52;4.90;;;2.10;;
62796;SDS011;48839;48.546;-4.178;2022-12-29T15:05:26;8.20;;;2.00;;
62796;SDS011;48839;48.546;-4.178;2022-12-29T15:07:53;7.60;;;2.77;;
62796;SDS011;48839;48.546;-4.178;2022-12-29T15:10:21;12.07;;;2.63;;
62796;SDS011;48839;48.546;-4.178;2022-12-29T15:12:50;6.45;;;2.22;;
62796;SDS011;48839;48.546;-4.178;2022-12-29T15:15:18;7.47;;;2.08;;
62796;SDS011;48839;48.546;-4.178;2022-12-29T15:17:45;7.57;;;2.00;;
62796;SDS011;48839;48.546;-4.178;2022-12-29T15:20:19;6.97;;;2.22;;
62796;SDS011;48839;48.546;-4.178;2022-12-29T15:22:56;6.50;;;2.42;;
62796;SDS011;48839;48.546;-4.178;2022-12-29T15:25:23;3.63;;;1.77;;
62796;SDS011;48839;48.546;-4.178;2022-12-29T15:27:51;9.93;;;3.17;;
62796;SDS011;48839;48.546;-4.178;2022-12-29T15:30:17;4.70;;;2.10;;
62796;SDS011;48839;48.546;-4.178;2022-12-29T15:32:43;34.33;;;15.50;;
62796;SDS011;48839;48.546;-4.178;2022-12-29T15:35:44;13.10;;;7.00;;
62796;SDS011;48839;48.546;-4.178;2022-12-29T15:38:13;23.98;;;9.57;;
62796;SDS011;48839;48.546;-4.178;2022-12-29T15:40:40;12.38;;;5.53;;
62796;SDS011;48839;48.546;-4.178;2022-12-29T15:45:41;11.00;;;4.03;;
62796;SDS011;48839;48.546;-4.178;2022-12-29T15:48:13;12.35;;;6.13;;
62796;SDS011;48839;48.546;-4.178;2022-12-29T15:56:32;7.82;;;3.10;;
62796;SDS011;48839;48.546;-4.178;2022-12-29T15:58:59;8.35;;;3.53;;
62796;SDS011;48839;48.546;-4.178;2022-12-29T16:01:32;9.43;;;3.40;;
62796;SDS011;48839;48.546;-4.178;2022-12-29T16:11:36;26.67;;;14.10;;
62796;SDS011;48839;48.546;-4.178;2022-12-29T16:14:06;9.70;;;4.60;;
62796;SDS011;48839;48.546;-4.178;2022-12-29T16:16:36;19.75;;;6.70;;
62796;SDS011;48839;48.546;-4.178;2022-12-29T16:19:05;23.88;;;8.35;;
62796;SDS011;48839;48.546;-4.178;2022-12-29T16:21:34;17.17;;;8.07;;
62796;SDS011;48839;48.546;-4.178;2022-12-29T16:24:02;12.43;;;6.80;;
62796;SDS011;48839;48.546;-4.178;2022-12-29T16:26:31;17.73;;;7.88;;
62796;SDS011;48839;48.546;-4.178;2022-12-29T16:28:58;41.85;;;19.38;;
62796;SDS011;48839;48.546;-4.178;2022-12-29T16:31:32;62.35;;;26.83;;
62796;SDS011;48839;48.546;-4.178;2022-12-29T16:33:58;115.38;;;45.17;;
62796;SDS011;48839;48.546;-4.178;2022-12-29T16:36:40;60.92;;;24.50;;
62796;SDS011;48839;48.546;-4.178;2022-12-29T16:41:48;21.95;;;10.38;;
62796;SDS011;48839;48.546;-4.178;2022-12-29T16:44:19;19.60;;;10.35;;
62796;SDS011;48839;48.546;-4.178;2022-12-29T16:46:59;16.80;;;5.20;;
62796;SDS011;48839;48.546;-4.178;2022-12-29T16:49:26;14.38;;;5.00;;
62796;SDS011;48839;48.546;-4.178;2022-12-29T16:51:52;9.30;;;4.35;;
62796;SDS011;48839;48.546;-4.178;2022-12-29T16:54:23;8.45;;;3.50;;
62796;SDS011;48839;48.546;-4.178;2022-12-29T16:56:50;7.07;;;3.50;;
62796;SDS011;48839;48.546;-4.178;2022-12-29T16:59:23;24.35;;;9.48;;
62796;SDS011;48839;48.546;-4.178;2022-12-29T17:01:51;18.52;;;7.10;;
62796;SDS011;48839;48.546;-4.178;2022-12-29T17:04:17;14.10;;;4.70;;
62796;SDS011;48839;48.546;-4.178;2022-12-29T17:06:43;11.38;;;4.07;;
62796;SDS011;48839;48.546;-4.178;2022-12-29T17:09:22;11.35;;;3.67;;
62796;SDS011;48839;48.546;-4.178;2022-12-29T17:11:50;11.25;;;3.65;;
62796;SDS011;48839;48.546;-4.178;2022-12-29T17:14:20;35.35;;;19.15;;